Time;durP1;ratioP1;P1;durP2;ratioP2;P2;SDS_P1;SDS_P2;PMS_P1;PMS_P2;Temp;Humidity;BMP_temperature;BMP_pressure;BME280_temperature;BME280_humidity;BME280_pressure;Samples;Min_cycle;Max_cycle;Signal;HPM_P1;HPM_P2
2022/01/23 00:01:26;;;;;;;47.42;25.95;;;-0.40;70.10;;;;;;5074514;28;20035;-19
2022/01/23 00:03:52;;;;;;;24.17;11.65;;;-0.30;68.70;;;;;;5074127;28;20047;-19
2022/01/23 00:06:17;;;;;;;56.88;30.85;;;-0.30;67.90;;;;;;5074294;28;20020;-19
2022/01/23 00:08:44;;;;;;;26.20;13.13;;;-0.30;67.30;;;;;;5074668;28;20024;-19
2022/01/23 00:11:09;;;;;;;30.77;15.02;;;-0.20;66.80;;;;;;5074151;28;20115;-19
2022/01/23 00:19:07;;;;;;;27.98;14.65;;;-0.20;65.90;;;;;;5074491;28;20031;-19
2022/01/23 00:21:34;;;;;;;99.47;51.58;;;-0.30;66.00;;;;;;5074066;28;20028;-19
2022/01/23 00:31:55;;;;;;;65.93;35.37;;;-0.40;66.80;;;;;;5073754;28;19963;-19
2022/01/23 00:34:21;;;;;;;57.92;28.27;;;-0.40;66.60;;;;;;5073378;28;20040;-19
2022/01/23 00:36:47;;;;;;;39.10;20.38;;;-0.50;67.30;;;;;;5073747;28;20075;-19
2022/01/23 00:39:13;;;;;;;45.13;22.67;;;-0.50;66.50;;;;;;5073467;28;20024;-19
2022/01/23 00:41:39;;;;;;;42.42;21.38;;;-0.60;66.30;;;;;;5073803;28;20025;-19
2022/01/23 00:44:05;;;;;;;37.17;18.17;;;-0.60;66.30;;;;;;5073402;28;20025;-19
2022/01/23 00:46:36;;;;;;;22.13;11.15;;;-0.60;65.90;;;;;;5073498;28;20025;-19
2022/01/23 00:51:37;;;;;;;47.40;23.38;;;-0.70;65.80;;;;;;5073306;28;20045;-19
2022/01/23 00:54:06;;;;;;;49.20;25.27;;;-0.80;66.30;;;;;;5073684;28;20036;-19
2022/01/23 00:56:36;;;;;;;33.22;16.73;;;-0.80;66.90;;;;;;5073285;28;20501;-19
2022/01/23 00:59:03;;;;;;;56.38;28.55;;;-0.90;66.40;;;;;;5073809;28;20024;-19
2022/01/23 01:01:30;;;;;;;39.40;19.17;;;-0.90;66.90;;;;;;5073416;28;20074;-19
2022/01/23 01:03:56;;;;;;;34.58;16.88;;;-1.00;66.70;;;;;;5073442;28;20028;-19
2022/01/23 01:06:23;;;;;;;36.17;17.20;;;-1.00;66.70;;;;;;5072919;28;20035;-19
2022/01/23 01:08:50;;;;;;;36.10;17.77;;;-1.10;66.80;;;;;;5073112;28;20033;-19
2022/01/23 01:32:57;;;;;;;60.83;30.13;;;-1.10;67.80;;;;;;5073469;28;20397;-19
2022/01/23 01:35:36;;;;;;;57.22;27.63;;;-1.00;67.80;;;;;;5072876;28;20362;-19
2022/01/23 01:38:03;;;;;;;52.05;25.35;;;-1.00;67.20;;;;;;5072813;28;20071;-19
2022/01/23 01:40:30;;;;;;;56.47;28.48;;;-1.00;67.50;;;;;;5073231;28;20107;-19
2022/01/23 01:42:57;;;;;;;50.40;27.42;;;-1.00;67.40;;;;;;5073145;28;20096;-18
2022/01/23 01:45:26;;;;;;;30.45;15.68;;;-1.00;68.00;;;;;;5073132;28;20522;-19
2022/01/23 01:47:56;;;;;;;60.60;34.03;;;-0.90;67.00;;;;;;5072957;28;20423;-19
2022/01/23 01:50:23;;;;;;;40.40;20.48;;;-1.00;67.70;;;;;;5071086;28;20052;-19
2022/01/23 01:52:49;;;;;;;39.60;21.90;;;-1.00;67.00;;;;;;5072843;28;20036;-19
2022/01/23 01:55:23;;;;;;;24.98;13.02;;;-1.00;67.60;;;;;;5072977;28;20169;-19
2022/01/23 01:57:55;;;;;;;42.00;20.88;;;-1.00;66.30;;;;;;5073201;28;20042;-19
2022/01/23 02:10:52;;;;;;;30.40;13.75;;;-1.10;68.30;;;;;;5073488;28;20003;-18
2022/01/23 02:13:25;;;;;;;40.90;20.83;;;-1.10;67.50;;;;;;5072838;28;20075;-19
2022/01/23 02:22:31;;;;;;;49.60;24.67;;;-1.10;67.50;;;;;;5072375;28;20060;-19
2022/01/23 02:54:38;;;;;;;42.75;20.35;;;-1.10;68.40;;;;;;5075678;28;20110;-19
2022/01/23 02:57:06;;;;;;;50.50;25.63;;;-1.00;68.10;;;;;;5075713;28;20036;-19
2022/01/23 02:59:36;;;;;;;24.52;12.77;;;-1.00;68.50;;;;;;5075726;28;20025;-19
2022/01/23 03:02:26;;;;;;;16.27;8.55;;;-1.00;68.20;;;;;;5075465;28;20032;-19
2022/01/23 03:04:59;;;;;;;21.20;9.13;;;-0.90;67.50;;;;;;5075380;28;20024;-19
2022/01/23 03:10:17;;;;;;;;;;;-0.90;66.90;;;;;;5075070;28;20077;-19
2022/01/23 03:33:36;;;;;;;33.08;16.63;;;-1.00;66.30;;;;;;5074827;28;20059;-19
2022/01/23 03:36:04;;;;;;;16.48;7.90;;;-1.00;66.20;;;;;;5075515;28;20033;-20
2022/01/23 03:38:30;;;;;;;14.10;6.80;;;-1.00;66.40;;;;;;5074468;28;20103;-20
2022/01/23 03:40:56;;;;;;;12.38;5.53;;;-1.00;66.00;;;;;;5074947;28;20108;-19
2022/01/23 03:43:28;;;;;;;26.88;15.93;;;-1.00;65.80;;;;;;5074570;28;20082;-19
2022/01/23 03:46:22;;;;;;;14.55;6.90;;;-1.00;66.00;;;;;;5074052;28;20392;-19
2022/01/23 03:51:35;;;;;;;33.15;17.58;;;-1.10;65.80;;;;;;5074287;28;20051;-19
2022/01/23 03:54:02;;;;;;;17.02;8.77;;;-1.10;66.40;;;;;;5074638;28;20082;-19
2022/01/23 03:56:30;;;;;;;28.20;16.70;;;-1.10;66.10;;;;;;5074331;28;20032;-19
2022/01/23 03:58:58;;;;;;;18.60;10.50;;;-1.10;66.10;;;;;;5074502;28;20032;-19
2022/01/23 04:01:25;;;;;;;33.35;18.45;;;-1.10;66.00;;;;;;5074269;28;20024;-19
2022/01/23 04:03:54;;;;;;;15.15;8.52;;;-1.20;66.30;;;;;;5074473;28;20037;-19
2022/01/23 04:06:20;;;;;;;22.35;11.20;;;-1.20;66.30;;;;;;5074127;28;20032;-20
2022/01/23 04:08:48;;;;;;;19.33;10.30;;;-1.20;66.40;;;;;;5074168;28;20384;-20
2022/01/23 04:11:13;;;;;;;29.65;14.25;;;-1.20;66.20;;;;;;5074334;28;20044;-20
2022/01/23 04:13:51;;;;;;;34.67;17.30;;;-1.20;66.60;;;;;;5074008;28;20496;-19
2022/01/23 04:33:28;;;;;;;23.33;10.93;;;-0.90;67.10;;;;;;5073979;28;20108;-19
2022/01/23 05:00:36;;;;;;;19.45;9.25;;;-0.60;66.50;;;;;;5073389;28;20052;-18
2022/01/23 05:06:06;;;;;;;16.85;9.25;;;-0.50;66.30;;;;;;5091434;28;20028;-18
2022/01/23 05:08:34;;;;;;;10.95;5.35;;;-0.50;66.50;;;;;;5071474;28;20450;-18
2022/01/23 05:11:02;;;;;;;22.52;12.93;;;-0.40;66.20;;;;;;5073441;28;20052;-18
2022/01/23 05:13:30;;;;;;;16.55;8.65;;;-0.40;66.50;;;;;;5073077;28;20024;-19
2022/01/23 05:15:56;;;;;;;16.08;9.63;;;-0.30;66.40;;;;;;5073040;28;20032;-18
2022/01/23 05:18:23;;;;;;;13.73;8.18;;;-0.30;66.00;;;;;;5072927;28;20108;-18
2022/01/23 05:20:58;;;;;;;15.57;8.13;;;-0.20;65.80;;;;;;5072915;28;20481;-18
2022/01/23 05:23:24;;;;;;;14.10;7.05;;;-0.10;65.80;;;;;;5073211;28;20055;-18
2022/01/23 05:25:50;;;;;;;20.27;9.43;;;0.00;65.70;;;;;;5073843;28;20118;-18
2022/01/23 05:28:16;;;;;;;25.00;12.18;;;0.00;65.60;;;;;;5071535;28;20101;-18
2022/01/23 05:30:43;;;;;;;12.02;6.50;;;0.00;65.80;;;;;;5073235;28;20028;-18
2022/01/23 05:33:09;;;;;;;28.88;16.48;;;0.00;66.00;;;;;;5072724;28;20396;-18
2022/01/23 05:35:35;;;;;;;23.08;12.60;;;0.00;65.70;;;;;;5072839;28;20036;-18
2022/01/23 05:38:01;;;;;;;18.80;9.30;;;0.00;66.30;;;;;;5072758;28;20032;-18
2022/01/23 05:40:29;;;;;;;30.08;15.80;;;0.00;65.90;;;;;;5072711;28;20082;-19
2022/01/23 05:42:55;;;;;;;34.22;19.15;;;0.00;66.40;;;;;;5072785;28;20103;-18
2022/01/23 05:45:21;;;;;;;33.05;16.35;;;0.10;68.90;;;;;;5073062;28;20124;-18
2022/01/23 05:47:47;;;;;;;30.73;17.02;;;0.10;68.70;;;;;;5071565;28;20025;-18
2022/01/23 05:50:14;;;;;;;22.25;13.07;;;0.10;67.50;;;;;;5072666;28;20025;-18
2022/01/23 05:52:39;;;;;;;11.65;6.20;;;0.10;67.00;;;;;;5072873;28;20070;-19
2022/01/23 05:55:06;;;;;;;14.27;7.95;;;0.10;66.70;;;;;;5072979;28;20021;-18
2022/01/23 05:57:32;;;;;;;14.07;7.18;;;0.20;66.50;;;;;;5073135;28;20063;-19
2022/01/23 05:59:58;;;;;;;11.82;6.60;;;0.20;66.30;;;;;;5072954;28;20400;-19
2022/01/23 06:02:24;;;;;;;20.05;9.23;;;0.20;66.10;;;;;;5072464;28;20029;-19
2022/01/23 06:04:50;;;;;;;25.33;13.65;;;0.30;66.00;;;;;;5072623;28;20016;-19
2022/01/23 06:07:16;;;;;;;19.55;10.50;;;0.30;66.90;;;;;;5072835;28;20021;-18
2022/01/23 06:09:42;;;;;;;27.90;13.52;;;0.30;67.50;;;;;;5076254;28;20020;-19
2022/01/23 06:12:08;;;;;;;19.50;10.65;;;0.30;67.60;;;;;;5075075;28;20048;-19
2022/01/23 06:14:34;;;;;;;14.65;8.10;;;0.40;67.30;;;;;;5076071;28;20033;-19
2022/01/23 06:17:00;;;;;;;12.02;6.20;;;0.40;66.50;;;;;;5076110;28;20070;-18
2022/01/23 06:19:26;;;;;;;11.60;5.28;;;0.50;66.30;;;;;;5076133;28;20028;-19
2022/01/23 06:21:52;;;;;;;20.83;11.27;;;0.60;66.20;;;;;;5076375;28;20031;-19
2022/01/23 06:24:26;;;;;;;16.23;6.72;;;0.60;66.20;;;;;;5074648;28;20365;-19
2022/01/23 06:26:55;;;;;;;16.42;7.72;;;0.70;65.90;;;;;;5076883;28;20039;-19
2022/01/23 06:29:23;;;;;;;24.45;12.27;;;0.70;65.90;;;;;;5076698;28;20033;-19
2022/01/23 06:31:50;;;;;;;23.38;11.38;;;0.80;66.10;;;;;;5076055;28;20052;-19
2022/01/23 06:34:17;;;;;;;23.88;11.38;;;0.80;66.00;;;;;;5076044;28;20036;-19
2022/01/23 06:36:45;;;;;;;21.95;10.60;;;0.90;65.80;;;;;;5075680;28;20044;-19
2022/01/23 06:39:13;;;;;;;26.73;13.95;;;0.90;66.30;;;;;;5075829;28;20104;-19
2022/01/23 06:41:39;;;;;;;29.40;14.40;;;0.90;65.90;;;;;;5076151;28;20480;-19
2022/01/23 06:44:06;;;;;;;28.30;15.35;;;0.90;65.80;;;;;;5074541;28;20086;-19
2022/01/23 06:46:33;;;;;;;22.90;12.88;;;1.00;66.40;;;;;;5075581;28;20050;-19
2022/01/23 06:49:00;;;;;;;24.88;12.45;;;1.00;66.50;;;;;;5075995;28;20021;-19
2022/01/23 06:51:27;;;;;;;27.10;13.20;;;1.00;66.50;;;;;;5075280;28;20455;-18
2022/01/23 06:53:53;;;;;;;24.00;13.20;;;1.00;66.90;;;;;;5075718;28;20029;-19
2022/01/23 06:56:19;;;;;;;29.35;14.57;;;1.00;66.50;;;;;;5075538;28;20511;-19
2022/01/23 06:58:45;;;;;;;17.95;9.73;;;1.10;66.50;;;;;;5075779;28;20163;-19
2022/01/23 07:01:11;;;;;;;27.02;12.80;;;1.10;66.30;;;;;;5075427;28;20024;-19
2022/01/23 07:03:38;;;;;;;28.15;14.70;;;1.20;66.90;;;;;;5075746;28;20024;-19
2022/01/23 07:06:05;;;;;;;23.23;11.32;;;1.20;67.10;;;;;;5075343;28;20082;-19
2022/01/23 07:08:32;;;;;;;34.92;18.05;;;1.30;67.10;;;;;;5075132;28;20027;-19
2022/01/23 07:10:59;;;;;;;29.77;13.60;;;1.40;67.20;;;;;;5075259;28;20405;-19
2022/01/23 07:13:26;;;;;;;34.90;16.73;;;1.40;67.30;;;;;;5075196;28;20564;-19
2022/01/23 07:15:52;;;;;;;33.00;16.70;;;1.50;67.00;;;;;;5075358;28;20024;-19
2022/01/23 07:18:18;;;;;;;28.33;13.90;;;1.60;67.20;;;;;;5074987;28;20074;-19
2022/01/23 07:20:46;;;;;;;26.77;12.93;;;1.70;67.50;;;;;;5074223;28;20090;-20
2022/01/23 07:23:12;;;;;;;32.60;17.40;;;1.70;67.70;;;;;;5075218;28;20023;-19
2022/01/23 07:25:39;;;;;;;46.15;20.95;;;1.80;67.20;;;;;;5075776;28;20028;-19
2022/01/23 07:28:10;;;;;;;35.53;17.77;;;1.80;67.50;;;;;;5074908;28;20128;-19
2022/01/23 07:30:42;;;;;;;42.50;21.08;;;1.90;67.40;;;;;;5075044;28;20036;-19
2022/01/23 07:33:09;;;;;;;25.85;12.30;;;1.90;67.70;;;;;;5075154;28;20021;-19
2022/01/23 07:35:35;;;;;;;24.85;13.00;;;2.00;67.90;;;;;;5075096;28;20028;-19
2022/01/23 07:38:00;;;;;;;35.75;18.80;;;2.00;66.30;;;;;;5074555;28;20546;-19
2022/01/23 07:40:26;;;;;;;42.85;21.90;;;2.10;68.00;;;;;;5073288;28;20024;-19
2022/01/23 07:42:52;;;;;;;37.58;18.85;;;2.10;68.00;;;;;;5074793;28;20031;-19
2022/01/23 07:45:18;;;;;;;44.05;21.95;;;2.20;68.50;;;;;;5073323;28;20424;-20
2022/01/23 07:47:46;;;;;;;42.78;21.55;;;2.20;68.80;;;;;;5074481;28;20503;-19
2022/01/23 07:50:12;;;;;;;45.13;24.02;;;2.30;70.00;;;;;;5074530;28;20060;-20
2022/01/23 07:52:39;;;;;;;26.10;12.23;;;2.40;70.20;;;;;;5074918;28;20017;-19
2022/01/23 07:55:12;;;;;;;32.45;17.42;;;2.40;68.80;;;;;;5074440;28;20024;-19
2022/01/23 07:57:39;;;;;;;16.33;7.72;;;2.50;68.10;;;;;;5073043;28;20032;-20
2022/01/23 08:00:08;;;;;;;16.20;8.43;;;2.60;67.60;;;;;;5073037;28;20028;-20
2022/01/23 08:02:34;;;;;;;21.20;10.98;;;2.70;66.90;;;;;;5074376;28;20043;-21
2022/01/23 08:05:00;;;;;;;32.97;16.58;;;2.80;66.80;;;;;;5074195;28;20025;-20
2022/01/23 08:09:59;;;;;;;28.13;14.63;;;2.90;66.80;;;;;;5074126;28;20029;-21
2022/01/23 08:12:26;;;;;;;21.35;10.80;;;2.90;66.70;;;;;;5074139;28;20097;-21
2022/01/23 08:14:53;;;;;;;19.27;10.43;;;3.00;66.30;;;;;;5074320;28;20025;-20
2022/01/23 08:17:24;;;;;;;30.48;16.27;;;3.10;65.90;;;;;;5073986;28;20032;-20
2022/01/23 08:19:51;;;;;;;26.35;13.98;;;3.10;66.40;;;;;;5073928;28;20032;-20
2022/01/23 08:22:17;;;;;;;27.90;16.00;;;3.20;66.30;;;;;;5073551;28;20056;-21
2022/01/23 08:24:43;;;;;;;21.85;11.55;;;3.20;66.30;;;;;;5074101;28;20060;-21
2022/01/23 08:27:09;;;;;;;31.13;17.95;;;3.20;66.30;;;;;;5074139;28;20028;-21
2022/01/23 08:29:35;;;;;;;25.67;15.27;;;3.30;66.20;;;;;;5073715;28;20475;-20
2022/01/23 08:32:01;;;;;;;36.80;20.30;;;3.40;66.90;;;;;;5073598;28;20028;-21
2022/01/23 08:34:27;;;;;;;25.42;13.13;;;3.40;66.80;;;;;;5073338;28;20073;-20
2022/01/23 08:36:55;;;;;;;29.15;14.75;;;3.50;66.60;;;;;;5073391;28;20029;-20
2022/01/23 08:39:24;;;;;;;25.88;13.63;;;3.60;66.70;;;;;;5074135;28;20016;-21
2022/01/23 08:41:50;;;;;;;29.77;15.63;;;3.60;65.60;;;;;;5074146;28;20446;-21
2022/01/23 08:44:22;;;;;;;22.13;12.35;;;3.70;65.70;;;;;;5073337;28;20165;-20
2022/01/23 08:46:48;;;;;;;22.95;12.40;;;3.80;65.70;;;;;;5073390;28;20033;-20
2022/01/23 08:49:17;;;;;;;21.83;11.85;;;3.90;65.60;;;;;;5073605;28;20441;-20
2022/01/23 08:51:44;;;;;;;26.00;14.32;;;4.00;65.40;;;;;;5073059;28;20048;-19
2022/01/23 08:54:10;;;;;;;27.48;15.68;;;4.10;65.10;;;;;;5073671;28;20095;-20
2022/01/23 08:56:36;;;;;;;25.70;14.30;;;4.20;65.70;;;;;;5073344;28;20124;-20
2022/01/23 08:59:03;;;;;;;26.70;14.18;;;4.30;65.10;;;;;;5073354;28;20025;-20
2022/01/23 09:01:29;;;;;;;24.70;13.70;;;4.40;64.90;;;;;;5073237;28;20028;-20
2022/01/23 09:03:56;;;;;;;19.58;10.40;;;4.50;65.00;;;;;;5073225;28;20066;-20
2022/01/23 09:06:22;;;;;;;29.20;16.02;;;4.50;64.80;;;;;;5073236;28;20369;-20
2022/01/23 09:08:51;;;;;;;37.00;20.13;;;4.60;64.90;;;;;;5073369;28;20033;-20
2022/01/23 09:11:26;;;;;;;38.25;20.50;;;4.70;64.60;;;;;;5073443;28;20024;-20
2022/01/23 09:14:14;;;;;;;34.55;18.52;;;4.70;64.70;;;;;;5073148;28;20040;-20
2022/01/23 09:16:43;;;;;;;20.05;9.95;;;4.80;64.80;;;;;;5073355;28;20036;-20
2022/01/23 09:19:10;;;;;;;43.08;22.30;;;4.80;64.10;;;;;;5073332;28;20146;-20
2022/01/23 09:21:38;;;;;;;33.90;17.95;;;4.90;64.40;;;;;;5072929;28;20024;-21
2022/01/23 09:24:06;;;;;;;33.53;18.48;;;4.90;64.00;;;;;;5073277;28;20028;-20
2022/01/23 09:26:34;;;;;;;40.55;22.83;;;5.00;63.90;;;;;;5072915;28;20017;-20
2022/01/23 09:29:02;;;;;;;26.45;15.55;;;5.10;64.30;;;;;;5072887;28;20036;-20
2022/01/23 09:31:44;;;;;;;36.50;20.80;;;5.10;64.00;;;;;;5073352;28;20035;-20
2022/01/23 09:34:11;;;;;;;17.92;9.90;;;5.20;63.90;;;;;;5072961;28;20025;-20
2022/01/23 09:36:37;;;;;;;19.58;9.98;;;5.20;63.60;;;;;;5072720;28;20025;-20
2022/01/23 09:39:04;;;;;;;16.45;8.88;;;5.30;63.50;;;;;;5071520;28;20075;-20
2022/01/23 09:41:32;;;;;;;21.45;11.57;;;5.40;63.40;;;;;;5071601;28;20112;-20
2022/01/23 09:44:01;;;;;;;33.65;19.40;;;5.40;63.40;;;;;;5075503;28;20464;-20
2022/01/23 09:46:27;;;;;;;39.55;20.90;;;5.50;63.30;;;;;;5076944;28;20016;-20
2022/01/23 09:48:54;;;;;;;46.85;25.08;;;5.60;63.30;;;;;;5075629;28;20082;-20
2022/01/23 09:51:25;;;;;;;34.55;19.27;;;5.60;63.40;;;;;;5075360;28;20052;-20
2022/01/23 09:53:55;;;;;;;33.05;18.70;;;5.80;63.20;;;;;;5077210;28;20070;-20
2022/01/23 09:56:27;;;;;;;30.25;17.30;;;5.90;63.10;;;;;;5077270;28;20056;-20
2022/01/23 09:58:55;;;;;;;19.95;10.73;;;6.00;63.00;;;;;;5076972;28;20043;-20
2022/01/23 10:01:23;;;;;;;45.03;26.48;;;6.20;62.70;;;;;;5076538;28;20388;-20
2022/01/23 10:03:50;;;;;;;23.02;13.23;;;6.30;63.20;;;;;;5076777;28;20078;-20
2022/01/23 10:06:16;;;;;;;26.52;15.57;;;6.40;62.90;;;;;;5076546;28;20074;-21
2022/01/23 10:08:43;;;;;;;18.08;10.27;;;6.50;62.70;;;;;;5076719;28;20037;-20
2022/01/23 10:11:12;;;;;;;31.70;17.95;;;6.70;62.60;;;;;;5076344;28;20082;-20
2022/01/23 10:13:41;;;;;;;29.60;16.80;;;6.80;62.50;;;;;;5076638;28;20028;-20
2022/01/23 10:16:07;;;;;;;32.67;18.95;;;6.90;62.20;;;;;;5076078;28;20021;-20
2022/01/23 10:18:34;;;;;;;27.27;15.93;;;7.10;62.30;;;;;;5076083;28;20028;-20
2022/01/23 10:21:00;;;;;;;25.45;13.40;;;7.20;62.20;;;;;;5076488;28;20048;-20
2022/01/23 10:23:27;;;;;;;29.98;15.60;;;7.40;61.80;;;;;;5074868;28;20102;-20
2022/01/23 10:25:54;;;;;;;23.30;12.77;;;7.60;61.50;;;;;;5076391;28;20032;-20
2022/01/23 10:28:31;;;;;;;25.08;14.50;;;7.80;60.90;;;;;;5075854;28;20043;-20
2022/01/23 10:31:01;;;;;;;35.00;17.73;;;8.00;60.60;;;;;;5076253;28;20464;-20
2022/01/23 10:33:28;;;;;;;28.63;15.25;;;8.30;60.20;;;;;;5076278;28;20029;-21
2022/01/23 10:36:02;;;;;;;26.42;15.98;;;8.50;60.10;;;;;;5076139;28;20039;-20
2022/01/23 10:38:34;;;;;;;19.58;10.95;;;8.70;59.70;;;;;;5075880;28;20036;-20
2022/01/23 10:42:11;;;;;;;27.98;16.90;;;9.00;59.40;;;;;;5076366;28;20078;-20
2022/01/23 10:49:53;;;;;;;25.42;14.30;;;9.90;58.10;;;;;;5075997;28;20495;-20
2022/01/23 10:52:40;;;;;;;28.25;16.65;;;10.20;57.60;;;;;;5075124;28;20414;-19
2022/01/23 10:55:29;;;;;;;35.20;18.23;;;10.50;56.80;;;;;;5074328;28;20129;-20
2022/01/23 10:58:00;;;;;;;30.27;15.45;;;10.80;55.80;;;;;;5075833;28;20039;-20
2022/01/23 11:00:35;;;;;;;27.50;15.27;;;11.00;55.60;;;;;;5075197;28;20021;-20
2022/01/23 11:03:22;;;;;;;35.83;18.92;;;11.20;55.10;;;;;;5075804;28;20032;-20
2022/01/23 11:05:50;;;;;;;29.55;16.20;;;11.40;54.90;;;;;;5075385;28;20032;-20
2022/01/23 11:08:30;;;;;;;29.90;16.48;;;11.70;54.30;;;;;;5075036;28;20078;-21
2022/01/23 11:11:01;;;;;;;26.60;15.88;;;11.90;53.60;;;;;;5075312;28;20040;-20
2022/01/23 11:19:25;;;;;;;28.63;14.88;;;12.40;53.70;;;;;;5075769;28;20036;-19
2022/01/23 11:21:53;;;;;;;27.95;15.80;;;12.70;53.10;;;;;;5075878;28;20048;-19
2022/01/23 11:24:21;;;;;;;24.50;13.38;;;12.80;53.00;;;;;;5074799;28;20025;-19
2022/01/23 11:26:47;;;;;;;25.98;13.95;;;13.10;53.00;;;;;;5075272;28;20029;-20
2022/01/23 11:29:17;;;;;;;33.33;17.13;;;13.30;53.10;;;;;;5075227;28;20119;-20
2022/01/23 11:31:44;;;;;;;23.60;12.85;;;13.60;52.40;;;;;;5075150;28;20024;-20
2022/01/23 11:34:13;;;;;;;35.53;18.42;;;13.90;52.20;;;;;;5074975;28;20423;-20
2022/01/23 11:36:41;;;;;;;29.58;17.08;;;14.30;51.40;;;;;;5074717;28;20534;-20
2022/01/23 11:39:13;;;;;;;29.77;14.13;;;14.60;50.70;;;;;;5075009;28;20027;-20
2022/01/23 11:51:05;;;;;;;33.83;16.15;;;16.00;48.70;;;;;;5074961;28;20052;-20
2022/01/23 11:58:55;;;;;;;23.90;12.25;;;17.10;46.90;;;;;;5075270;28;20024;-20
2022/01/23 12:01:26;;;;;;;31.60;14.88;;;17.40;47.00;;;;;;5074616;28;20036;-20
2022/01/23 12:04:11;;;;;;;25.85;13.05;;;17.60;45.80;;;;;;5074320;28;20029;-20
2022/01/23 12:06:40;;;;;;;18.35;9.45;;;17.90;45.90;;;;;;5073868;28;20443;-20
2022/01/23 12:09:20;;;;;;;20.00;9.85;;;18.20;45.90;;;;;;5074057;28;20028;-20
2022/01/23 12:12:41;;;;;;;30.13;15.65;;;18.50;45.80;;;;;;5074108;28;20063;-20
2022/01/23 12:18:15;;;;;;;30.45;14.57;;;19.10;45.10;;;;;;5071917;28;20044;-20
2022/01/23 12:20:43;;;;;;;30.30;15.32;;;19.40;44.10;;;;;;5056020;28;20031;-20
2022/01/23 12:23:10;;;;;;;27.08;13.57;;;19.60;43.10;;;;;;5072062;28;20108;-20
2022/01/23 12:25:53;;;;;;;30.52;15.10;;;19.80;43.70;;;;;;5071890;28;20036;-20
2022/01/23 12:28:32;;;;;;;19.65;9.77;;;20.00;43.10;;;;;;5072233;28;20024;-20
2022/01/23 12:31:29;;;;;;;24.67;11.40;;;20.30;42.90;;;;;;5071701;28;20123;-20
2022/01/23 12:34:01;;;;;;;24.73;13.25;;;20.50;42.80;;;;;;5012072;28;20096;-20
2022/01/23 12:36:31;;;;;;;28.73;15.00;;;20.70;42.40;;;;;;5011717;28;20041;-20
2022/01/23 12:39:09;;;;;;;25.75;13.27;;;20.90;41.90;;;;;;5011977;28;20048;-20
2022/01/23 12:41:37;;;;;;;34.10;18.05;;;21.10;38.20;;;;;;5011813;28;20494;-20
2022/01/23 12:44:28;;;;;;;31.70;16.42;;;21.20;40.40;;;;;;5011807;28;20057;-20
2022/01/23 12:47:01;;;;;;;26.27;14.00;;;21.10;37.20;;;;;;5011764;28;20430;-20
2022/01/23 12:49:34;;;;;;;29.15;14.95;;;21.10;40.90;;;;;;5011731;28;20028;-20
2022/01/23 12:52:07;;;;;;;35.65;18.23;;;20.90;41.20;;;;;;5028839;28;20080;-20
2022/01/23 12:54:47;;;;;;;35.58;18.73;;;20.70;40.10;;;;;;5031239;28;20037;-20
2022/01/23 12:57:17;;;;;;;32.45;16.45;;;20.40;40.90;;;;;;5032010;28;20038;-20
2022/01/23 12:59:51;;;;;;;30.88;16.88;;;20.20;41.80;;;;;;5031313;28;20061;-19
2022/01/23 13:02:19;;;;;;;21.50;11.65;;;20.20;40.60;;;;;;5031117;28;20028;-20
2022/01/23 13:04:49;;;;;;;27.98;13.77;;;20.30;41.90;;;;;;5031340;28;20037;-20
2022/01/23 13:07:41;;;;;;;19.45;10.73;;;20.40;41.80;;;;;;5031195;28;20027;-20
2022/01/23 13:10:27;;;;;;;23.27;11.63;;;20.70;41.20;;;;;;5049255;28;20032;-20
2022/01/23 13:30:12;;;;;;;23.77;13.30;;;21.80;40.90;;;;;;5051321;28;20076;-20
2022/01/23 13:34:58;;;;;;;25.33;13.65;;;21.50;41.10;;;;;;5051534;28;20424;-20
2022/01/23 13:37:25;;;;;;;;;;;21.40;40.80;;;;;;5051240;28;20044;-20
2022/01/23 13:39:59;;;;;;;25.00;13.38;;;21.50;40.40;;;;;;5050847;28;19995;-20
2022/01/23 13:54:19;;;;;;;30.52;16.40;;;22.40;37.40;;;;;;5050824;28;20485;-20
2022/01/23 14:02:18;;;;;;;19.17;11.15;;;22.60;39.60;;;;;;5050705;28;20025;-20
2022/01/23 14:04:56;;;;;;;17.52;9.57;;;22.70;39.00;;;;;;5072229;28;20108;-20
2022/01/23 14:07:25;;;;;;;18.65;9.10;;;22.90;39.20;;;;;;5072905;28;20025;-20
2022/01/23 14:09:52;;;;;;;15.25;8.60;;;22.90;39.30;;;;;;5073203;28;20020;-20
2022/01/23 14:12:20;;;;;;;26.25;14.48;;;23.10;39.10;;;;;;5072683;28;20024;-20
2022/01/23 14:15:03;;;;;;;27.15;15.38;;;23.20;38.70;;;;;;5072545;28;20494;-20
2022/01/23 14:17:31;;;;;;;30.20;18.00;;;23.30;37.40;;;;;;5072804;28;20028;-20
2022/01/23 14:19:59;;;;;;;21.83;12.98;;;23.20;37.20;;;;;;5072497;28;20035;-20
2022/01/23 14:22:27;;;;;;;27.17;14.77;;;23.10;37.60;;;;;;5072154;28;20063;-20
2022/01/23 14:25:07;;;;;;;28.60;16.23;;;23.00;37.60;;;;;;5072440;28;20036;-19
2022/01/23 14:27:34;;;;;;;25.50;15.07;;;22.90;36.20;;;;;;5072443;28;20056;-20
2022/01/23 14:30:06;;;;;;;22.85;13.45;;;22.80;37.60;;;;;;5074954;28;20029;-20
2022/01/23 14:32:46;;;;;;;20.67;11.10;;;22.70;38.10;;;;;;5076179;28;20024;-20
2022/01/23 14:35:19;;;;;;;19.30;10.25;;;22.70;38.40;;;;;;5075976;28;20055;-20
2022/01/23 14:37:47;;;;;;;27.50;15.45;;;22.60;38.60;;;;;;5075871;28;20044;-20
2022/01/23 14:40:15;;;;;;;30.80;17.02;;;22.60;38.70;;;;;;5075800;28;20052;-20
2022/01/23 14:43:04;;;;;;;18.58;10.85;;;22.60;38.30;;;;;;5076116;28;20095;-20
2022/01/23 14:45:36;;;;;;;31.88;18.10;;;22.60;37.70;;;;;;5075825;28;20024;-20
2022/01/23 14:48:05;;;;;;;26.65;14.25;;;22.50;37.70;;;;;;5075914;28;20025;-20
2022/01/23 14:50:33;;;;;;;20.15;11.02;;;22.40;38.10;;;;;;5075259;28;20049;-20
2022/01/23 14:53:13;;;;;;;27.63;16.02;;;22.40;38.40;;;;;;5075550;28;20036;-20
2022/01/23 14:55:46;;;;;;;33.40;18.38;;;22.30;38.30;;;;;;5075926;28;20020;-20
2022/01/23 14:58:14;;;;;;;26.58;13.65;;;22.10;37.80;;;;;;5075401;28;20028;-21
2022/01/23 15:00:41;;;;;;;28.38;15.35;;;21.90;38.10;;;;;;5075507;28;20029;-20
2022/01/23 15:03:08;;;;;;;30.45;17.20;;;21.80;38.50;;;;;;5075851;28;20518;-20
2022/01/23 15:05:37;;;;;;;25.38;15.05;;;21.60;38.40;;;;;;5075418;28;20021;-20
2022/01/23 15:08:07;;;;;;;17.98;10.43;;;21.40;38.50;;;;;;5075565;28;20024;-20
2022/01/23 15:10:35;;;;;;;22.77;13.75;;;21.30;39.10;;;;;;5075145;28;20109;-20
2022/01/23 15:13:01;;;;;;;19.45;10.90;;;21.10;39.20;;;;;;5075307;28;20028;-20
2022/01/23 15:15:27;;;;;;;28.92;17.25;;;20.90;39.30;;;;;;5075202;28;20029;-20
2022/01/23 15:17:54;;;;;;;26.52;16.63;;;20.60;39.70;;;;;;5073865;28;20060;-20
2022/01/23 15:20:20;;;;;;;22.63;13.30;;;20.20;40.00;;;;;;5075259;28;20028;-20
2022/01/23 15:22:46;;;;;;;24.27;14.65;;;19.90;40.30;;;;;;5075091;28;20024;-20
2022/01/23 15:25:15;;;;;;;21.55;12.35;;;19.40;40.80;;;;;;5075331;28;20024;-20
2022/01/23 15:27:42;;;;;;;24.02;13.02;;;19.00;41.50;;;;;;5075671;28;20469;-20
2022/01/23 15:30:10;;;;;;;34.90;18.52;;;18.70;41.90;;;;;;5075273;28;20054;-20
2022/01/23 15:32:36;;;;;;;18.98;10.20;;;18.30;42.20;;;;;;5074895;28;20096;-20
2022/01/23 15:35:04;;;;;;;20.73;10.88;;;17.90;42.80;;;;;;5075220;28;20120;-20
2022/01/23 15:37:31;;;;;;;18.45;9.80;;;17.50;43.30;;;;;;5074611;28;20377;-20
2022/01/23 15:39:58;;;;;;;20.75;10.73;;;17.20;43.80;;;;;;5074859;28;20027;-20
2022/01/23 15:42:24;;;;;;;16.30;8.77;;;16.90;44.10;;;;;;5074016;28;20028;-20
2022/01/23 15:44:51;;;;;;;14.95;7.88;;;16.50;44.50;;;;;;5074650;28;20025;-20
2022/01/23 15:47:17;;;;;;;16.27;8.10;;;16.20;45.10;;;;;;5075228;28;20017;-20
2022/01/23 15:49:43;;;;;;;37.22;20.25;;;15.90;45.50;;;;;;5074871;28;20028;-20
2022/01/23 15:52:10;;;;;;;20.27;11.25;;;15.70;45.70;;;;;;5073060;28;20101;-21
2022/01/23 15:54:36;;;;;;;16.52;9.32;;;15.30;46.10;;;;;;5074207;28;20036;-20
2022/01/23 15:57:04;;;;;;;17.15;9.57;;;15.10;46.60;;;;;;5074334;28;20516;-20
2022/01/23 15:59:30;;;;;;;16.48;8.75;;;14.80;47.00;;;;;;5074352;28;20029;-19
2022/01/23 16:01:56;;;;;;;19.98;10.40;;;14.60;47.30;;;;;;5073150;28;20037;-20
2022/01/23 16:04:23;;;;;;;21.50;10.00;;;14.40;47.60;;;;;;5074171;28;20023;-20
2022/01/23 16:06:50;;;;;;;16.35;9.02;;;14.10;47.90;;;;;;5074547;28;20056;-20
2022/01/23 16:09:16;;;;;;;15.77;9.10;;;13.90;48.10;;;;;;5074295;28;20024;-20
2022/01/23 16:11:43;;;;;;;16.83;8.38;;;13.70;48.40;;;;;;5074430;28;20028;-20
2022/01/23 16:14:09;;;;;;;16.20;8.30;;;13.40;48.70;;;;;;5074087;28;20082;-20
2022/01/23 16:16:35;;;;;;;15.73;8.02;;;13.20;48.90;;;;;;5073694;28;20103;-20
2022/01/23 16:19:02;;;;;;;17.08;8.30;;;13.10;49.10;;;;;;5073897;28;20480;-20
2022/01/23 16:21:28;;;;;;;15.90;8.57;;;12.90;49.40;;;;;;5072690;28;20016;-20
2022/01/23 16:23:54;;;;;;;15.60;8.30;;;12.70;49.60;;;;;;5074105;28;20052;-20
2022/01/23 16:26:21;;;;;;;18.50;9.18;;;12.50;49.80;;;;;;5073641;28;20511;-20
2022/01/23 16:28:47;;;;;;;15.48;7.78;;;12.40;49.90;;;;;;5073715;28;20495;-20